Time;durP1;ratioP1;P1;durP2;ratioP2;P2;SDS_P1;SDS_P2;PMS_P1;PMS_P2;Temp;Humidity;BMP_temperature;BMP_pressure;BME280_temperature;BME280_humidity;BME280_pressure;Samples;Min_cycle;Max_cycle;Signal;HPM_P1;HPM_P2
2022/06/08 00:01:40;;;;;;;0.97;0.97;;;;;;;16.58;74.40;99993.75;5052779;28;20589;-74
2022/06/08 00:04:11;;;;;;;0.80;0.80;;;;;;;16.58;74.60;99988.47;5052746;28;20205;-75
2022/06/08 00:06:38;;;;;;;0.83;0.80;;;;;;;16.56;74.50;99992.13;5052373;28;20270;-74
2022/06/08 00:09:04;;;;;;;0.90;0.90;;;;;;;16.57;74.69;99984.16;5052247;28;20230;-74
2022/06/08 00:11:31;;;;;;;0.93;0.80;;;;;;;16.53;74.99;99973.81;5052780;28;20203;-74
2022/06/08 00:13:58;;;;;;;0.70;0.70;;;;;;;16.47;75.14;99967.94;5052304;28;20201;-74
2022/06/08 00:16:24;;;;;;;1.10;1.10;;;;;;;16.49;75.46;99959.97;5052094;28;20228;-74
2022/06/08 00:18:51;;;;;;;1.00;1.00;;;;;;;16.45;75.82;99961.03;5052432;28;20208;-74
2022/06/08 00:21:19;;;;;;;1.30;1.30;;;;;;;16.42;76.18;99950.66;5052591;28;20199;-74
2022/06/08 00:23:46;;;;;;;1.20;1.20;;;;;;;16.45;76.03;99942.59;5052369;28;20688;-74
2022/06/08 00:26:13;;;;;;;1.20;1.20;;;;;;;16.46;76.00;99949.59;5052338;28;20277;-74
2022/06/08 00:28:39;;;;;;;1.40;1.30;;;;;;;16.43;75.89;99947.97;5051649;28;20607;-74
2022/06/08 00:31:06;;;;;;;1.43;1.30;;;;;;;16.44;76.14;99940.91;5052004;28;20547;-74
2022/06/08 00:33:33;;;;;;;1.10;1.10;;;;;;;16.46;75.76;99939.03;5052183;28;20212;-74
2022/06/08 00:35:59;;;;;;;1.00;1.00;;;;;;;16.44;76.24;99938.28;5052121;28;20224;-74
2022/06/08 00:38:27;;;;;;;1.10;1.00;;;;;;;16.41;76.59;99919.97;5052115;28;20206;-74
2022/06/08 00:41:08;;;;;;;1.30;1.20;;;;;;;16.41;76.37;99931.38;5051637;28;20246;-74
2022/06/08 00:43:35;;;;;;;1.10;1.10;;;;;;;16.43;76.44;99941.81;5051709;28;20200;-74
2022/06/08 00:46:02;;;;;;;0.97;0.97;;;;;;;16.44;76.76;99931.22;5051550;28;20270;-74
2022/06/08 00:48:35;;;;;;;1.43;1.43;;;;;;;16.45;75.99;99934.69;5051786;28;20205;-74
2022/06/08 00:51:02;;;;;;;1.20;1.10;;;;;;;16.40;76.89;99920.91;5051982;28;20208;-74
2022/06/08 00:53:35;;;;;;;1.20;1.20;;;;;;;16.35;76.93;99912.38;5051784;28;20199;-74
2022/06/08 00:56:04;;;;;;;1.40;1.30;;;;;;;16.35;76.82;99917.66;5051585;28;20220;-74
2022/06/08 00:58:34;;;;;;;1.10;1.10;;;;;;;16.35;77.06;99917.66;5051536;28;20659;-74
2022/06/08 01:01:00;;;;;;;1.40;1.30;;;;;;;16.38;76.78;99914.88;5051072;28;20253;-74
2022/06/08 01:03:28;;;;;;;1.40;1.30;;;;;;;16.36;77.14;99906.22;5051207;28;20204;-74
2022/06/08 01:05:59;;;;;;;1.30;1.20;;;;;;;16.36;76.90;99914.94;5051724;28;20211;-74
2022/06/08 01:08:33;;;;;;;1.53;1.43;;;;;;;16.36;77.14;99903.56;5051553;28;20207;-74
2022/06/08 01:11:02;;;;;;;1.90;1.80;;;;;;;16.35;77.20;99899.22;5051362;28;20195;-74
2022/06/08 01:13:31;;;;;;;1.30;1.30;;;;;;;16.34;77.54;99893.09;5051650;28;20258;-74
2022/06/08 01:16:00;;;;;;;1.37;1.30;;;;;;;16.35;77.51;99892.19;5051047;28;20276;-74
2022/06/08 01:18:26;;;;;;;1.60;1.50;;;;;;;16.39;77.74;99879.69;5051165;28;20203;-74
2022/06/08 01:20:56;;;;;;;1.40;1.30;;;;;;;16.37;77.68;99884.19;5051281;28;20254;-74
2022/06/08 01:23:24;;;;;;;1.60;1.50;;;;;;;16.36;77.98;99872.81;5051798;28;20203;-74
2022/06/08 01:26:10;;;;;;;1.50;1.40;;;;;;;16.37;77.97;99877.16;5051096;28;20648;-74
2022/06/08 01:28:46;;;;;;;1.53;1.43;;;;;;;16.38;77.86;99875.38;5051495;28;20288;-74
2022/06/08 01:31:24;;;;;;;1.40;1.30;;;;;;;16.38;77.99;99868.31;5051632;28;20206;-74
2022/06/08 01:34:07;;;;;;;1.50;1.40;;;;;;;16.38;77.98;99865.69;5051010;28;20623;-74
2022/06/08 01:36:58;;;;;;;1.33;1.23;;;;;;;16.37;78.31;99853.44;5050964;28;20770;-74
2022/06/08 01:39:40;;;;;;;1.67;1.57;;;;;;;16.39;78.58;99854.22;5050788;28;20653;-74
2022/06/08 01:42:41;;;;;;;1.37;1.23;;;;;;;16.42;78.44;99842.66;5044617;28;20206;-74
2022/06/08 01:45:29;;;;;;;1.80;1.70;;;;;;;16.42;78.63;99845.28;5046251;28;20235;-74
2022/06/08 01:48:22;;;;;;;1.70;1.60;;;;;;;16.43;78.73;99839.94;5050991;28;20187;-74
2022/06/08 01:50:59;;;;;;;2.50;1.57;;;;;;;16.40;78.48;99840.09;5051018;28;20260;-74
2022/06/08 01:53:35;;;;;;;2.63;1.50;;;;;;;16.38;78.83;99838.50;5051290;28;20283;-74
2022/06/08 01:56:14;;;;;;;1.80;1.70;;;;;;;16.41;79.00;99827.78;5051183;28;20224;-74
2022/06/08 01:58:48;;;;;;;1.70;1.60;;;;;;;16.44;79.00;99835.53;5051020;28;20210;-74
2022/06/08 02:01:20;;;;;;;1.23;1.23;;;;;;;16.45;79.25;99827.56;5050986;28;20199;-74
2022/06/08 02:03:57;;;;;;;2.27;2.07;;;;;;;16.45;78.49;99838.09;5051081;28;20204;-74
2022/06/08 02:06:28;;;;;;;1.60;1.60;;;;;;;16.45;79.19;99822.28;5051251;28;20224;-74
2022/06/08 02:08:59;;;;;;;1.97;1.70;;;;;;;16.44;79.42;99820.56;5050618;28;20227;-74
2022/06/08 02:11:33;;;;;;;1.73;1.63;;;;;;;16.39;80.01;99796.28;5051088;28;20207;-74
2022/06/08 02:14:04;;;;;;;1.43;1.40;;;;;;;16.39;80.65;99782.22;5050565;28;20208;-74
2022/06/08 02:16:36;;;;;;;1.90;1.80;;;;;;;16.42;81.19;99766.28;5050760;28;20692;-74
2022/06/08 02:19:07;;;;;;;2.67;1.70;;;;;;;16.43;81.60;99746.88;5038832;28;20235;-74
2022/06/08 02:21:42;;;;;;;2.90;1.80;;;;;;;16.36;81.81;99741.09;5038517;28;20206;-74
2022/06/08 02:24:14;;;;;;;2.27;2.17;;;;;;;16.35;82.06;99739.41;5039412;28;20205;-74
2022/06/08 02:26:44;;;;;;;2.40;2.13;;;;;;;16.34;82.60;99724.53;5037463;28;20224;-74
2022/06/08 02:29:15;;;;;;;2.40;2.20;;;;;;;16.39;82.67;99724.28;5042547;28;20205;-74
2022/06/08 02:31:45;;;;;;;2.00;1.90;;;;;;;16.37;82.43;99726.16;5053237;28;20235;-75
2022/06/08 02:34:28;;;;;;;2.40;2.30;;;;;;;16.35;82.74;99725.38;5047460;28;20261;-75
2022/06/08 02:37:00;;;;;;;2.27;2.00;;;;;;;16.40;82.67;99723.34;5048052;28;20221;-74
2022/06/08 02:39:31;;;;;;;2.20;2.10;;;;;;;16.41;82.87;99723.28;5044109;28;20208;-74
2022/06/08 02:42:06;;;;;;;2.50;2.30;;;;;;;16.38;83.02;99726.06;5046995;28;20232;-74
2022/06/08 02:44:34;;;;;;;2.70;2.50;;;;;;;16.38;82.91;99714.69;5047400;28;20788;-74
2022/06/08 02:47:06;;;;;;;2.70;2.50;;;;;;;16.39;83.17;99719.88;5046437;28;20196;-74
2022/06/08 02:49:35;;;;;;;2.40;2.30;;;;;;;16.37;83.64;99700.69;5047442;28;20593;-74
2022/06/08 02:52:05;;;;;;;2.40;2.30;;;;;;;16.34;83.44;99716.63;5046040;28;20650;-74
2022/06/08 02:54:32;;;;;;;2.53;2.43;;;;;;;16.36;83.82;99706.88;5045107;28;20254;-75
2022/06/08 02:57:07;;;;;;;2.17;2.07;;;;;;;16.38;83.42;99715.53;5044645;28;20693;-75
2022/06/08 02:59:41;;;;;;;2.73;2.00;;;;;;;16.38;84.05;99704.16;5046115;28;20616;-74
2022/06/08 03:02:15;;;;;;;3.17;2.87;;;;;;;16.39;84.49;99690.91;5051473;28;20257;-74
2022/06/08 03:04:50;;;;;;;2.47;2.27;;;;;;;16.41;84.53;99699.56;5047791;28;20218;-74
2022/06/08 03:07:21;;;;;;;2.57;2.47;;;;;;;16.37;84.50;99699.81;5053823;28;20603;-75
2022/06/08 03:09:49;;;;;;;2.40;2.20;;;;;;;16.36;84.65;99700.75;5052711;28;20226;-74
2022/06/08 03:12:24;;;;;;;2.00;1.90;;;;;;;16.36;84.69;99695.50;5053520;28;20271;-74
2022/06/08 03:14:50;;;;;;;2.43;2.33;;;;;;;16.38;84.64;99702.38;5053340;28;20223;-74
2022/06/08 03:17:18;;;;;;;2.83;2.20;;;;;;;16.39;85.23;99703.19;5053058;28;20231;-74
2022/06/08 03:19:45;;;;;;;2.37;2.27;;;;;;;16.41;85.11;99698.69;5053278;28;20205;-74
2022/06/08 03:22:14;;;;;;;2.50;2.30;;;;;;;16.41;85.33;99699.56;5053479;28;20202;-74
2022/06/08 03:24:41;;;;;;;2.53;2.33;;;;;;;16.39;85.30;99703.19;5053530;28;20215;-75
2022/06/08 03:27:08;;;;;;;2.20;2.10;;;;;;;16.40;84.96;99700.50;5053241;28;20658;-74
2022/06/08 03:29:36;;;;;;;2.67;2.47;;;;;;;16.43;84.68;99717.91;5053003;28;20746;-74
2022/06/08 03:32:03;;;;;;;2.57;2.13;;;;;;;16.43;84.22;99737.22;5053504;28;20246;-74
2022/06/08 03:34:29;;;;;;;3.20;3.00;;;;;;;16.41;84.75;99730.31;5053475;28;20272;-74
2022/06/08 03:36:56;;;;;;;3.40;3.00;;;;;;;16.44;84.75;99731.00;5053332;28;20228;-74
2022/06/08 03:39:23;;;;;;;2.73;2.63;;;;;;;16.48;84.46;99735.16;5052877;28;20208;-74
2022/06/08 03:41:49;;;;;;;3.00;2.80;;;;;;;16.52;84.63;99738.50;5051614;28;20682;-74
2022/06/08 03:44:15;;;;;;;3.10;2.90;;;;;;;16.49;84.52;99749.22;5052982;28;20208;-74
2022/06/08 03:46:48;;;;;;;4.23;3.57;;;;;;;16.53;84.89;99736.69;5053170;28;20205;-75
2022/06/08 03:49:15;;;;;;;2.73;2.63;;;;;;;16.56;85.03;99713.66;5052591;28;20295;-74
2022/06/08 03:51:43;;;;;;;2.93;2.50;;;;;;;16.59;84.12;99755.66;5053292;28;20200;-75
2022/06/08 03:54:13;;;;;;;2.60;2.37;;;;;;;16.53;84.69;99748.09;5052738;28;20601;-75
2022/06/08 03:56:42;;;;;;;3.10;2.80;;;;;;;16.58;84.80;99751.31;5045990;28;20224;-74
2022/06/08 03:59:09;;;;;;;3.37;2.60;;;;;;;16.61;84.66;99755.56;5052410;28;20623;-74
2022/06/08 04:01:36;;;;;;;3.00;2.80;;;;;;;16.70;84.51;99755.06;5052629;28;20671;-74
2022/06/08 04:04:05;;;;;;;2.50;2.40;;;;;;;16.72;84.15;99763.75;5052607;28;20201;-74
2022/06/08 04:06:32;;;;;;;2.97;2.77;;;;;;;16.76;84.33;99772.31;5052182;28;20274;-74
2022/06/08 04:08:58;;;;;;;3.33;3.13;;;;;;;16.78;84.42;99766.03;5052704;28;20266;-74
2022/06/08 04:11:24;;;;;;;3.50;3.30;;;;;;;16.83;83.88;99774.56;5052540;28;20211;-74
2022/06/08 04:13:51;;;;;;;3.60;3.30;;;;;;;16.84;84.18;99772.78;5052181;28;20637;-74
2022/06/08 04:16:17;;;;;;;2.93;2.83;;;;;;;16.83;84.58;99761.41;5052420;28;20228;-74
2022/06/08 04:18:44;;;;;;;3.03;2.77;;;;;;;16.86;84.37;99755.09;5052141;28;20196;-74
2022/06/08 04:21:15;;;;;;;3.10;2.90;;;;;;;16.91;84.08;99765.38;5052362;28;20208;-75
2022/06/08 04:23:43;;;;;;;3.50;3.30;;;;;;;16.94;83.26;99792.41;5044879;28;20204;-75
2022/06/08 04:26:11;;;;;;;3.70;3.47;;;;;;;16.93;83.97;99777.56;5052088;28;20223;-75
2022/06/08 04:28:37;;;;;;;3.67;3.40;;;;;;;16.99;83.13;99793.03;5052180;28;20215;-75
2022/06/08 04:31:04;;;;;;;3.60;2.77;;;;;;;16.98;83.15;99796.59;5052184;28;20734;-74
2022/06/08 04:33:31;;;;;;;3.73;3.20;;;;;;;17.00;83.71;99785.97;5051864;28;20287;-75
2022/06/08 04:35:58;;;;;;;4.30;4.00;;;;;;;17.01;83.26;99796.44;5052213;28;20325;-75
2022/06/08 04:38:26;;;;;;;4.20;3.70;;;;;;;17.02;83.62;99787.56;5051768;28;20233;-75
2022/06/08 04:40:53;;;;;;;3.67;3.47;;;;;;;17.03;83.96;99783.16;5051720;28;20719;-74
2022/06/08 04:43:20;;;;;;;4.23;4.00;;;;;;;17.02;83.88;99781.44;5052008;28;20247;-75
2022/06/08 04:45:46;;;;;;;3.50;3.30;;;;;;;17.04;83.89;99784.84;5044388;28;20558;-74
2022/06/08 04:48:14;;;;;;;3.90;3.70;;;;;;;17.04;83.46;99785.69;5051501;28;20685;-74
2022/06/08 04:50:41;;;;;;;4.37;3.97;;;;;;;17.10;83.09;99804.75;5051408;28;20625;-74
2022/06/08 04:53:08;;;;;;;4.40;4.10;;;;;;;17.05;83.06;99808.50;5051826;28;20204;-74
2022/06/08 04:55:36;;;;;;;4.27;3.97;;;;;;;17.13;83.20;99805.44;5051532;28;20226;-74
2022/06/08 04:58:03;;;;;;;4.30;4.03;;;;;;;17.15;83.14;99802.72;5051782;28;20277;-74
2022/06/08 05:00:31;;;;;;;4.37;4.07;;;;;;;17.12;83.35;99792.31;5051330;28;20203;-75
2022/06/08 05:02:58;;;;;;;4.37;4.10;;;;;;;17.16;82.90;99797.34;5051412;28;20197;-74
2022/06/08 05:05:26;;;;;;;4.30;4.10;;;;;;;17.16;82.81;99799.13;5051907;28;20274;-74
2022/06/08 05:07:53;;;;;;;3.70;3.40;;;;;;;17.18;83.68;99787.53;5051674;28;20203;-76
2022/06/08 05:10:21;;;;;;;5.17;4.87;;;;;;;17.19;84.12;99773.44;5051177;28;20621;-75
2022/06/08 05:12:50;;;;;;;4.50;4.20;;;;;;;17.20;83.96;99772.47;5050812;28;20213;-75
2022/06/08 05:15:19;;;;;;;3.53;3.33;;;;;;;17.22;83.13;99788.22;5051350;28;20236;-75
2022/06/08 05:17:46;;;;;;;4.50;4.20;;;;;;;17.22;84.01;99778.56;5049881;28;20227;-75
2022/06/08 05:20:16;;;;;;;3.43;3.23;;;;;;;17.26;84.11;99773.94;5051169;28;20205;-76
2022/06/08 05:22:43;;;;;;;2.63;2.43;;;;;;;17.30;84.50;99761.41;5051436;28;20247;-76
2022/06/08 05:25:12;;;;;;;2.40;2.20;;;;;;;17.36;85.06;99747.88;5051386;28;20229;-76
2022/06/08 05:27:39;;;;;;;3.53;3.33;;;;;;;17.39;84.12;99764.38;5051346;28;20601;-75
2022/06/08 05:30:09;;;;;;;3.60;2.73;;;;;;;17.41;84.42;99762.50;5043071;28;20258;-75
2022/06/08 05:32:36;;;;;;;3.67;3.40;;;;;;;17.46;84.39;99767.50;5051279;28;20201;-76
2022/06/08 05:35:02;;;;;;;3.53;3.33;;;;;;;17.46;84.39;99762.22;5051254;28;20280;-75
2022/06/08 05:37:28;;;;;;;2.47;2.37;;;;;;;17.54;84.22;99785.53;5051445;28;20224;-75
2022/06/08 05:39:55;;;;;;;3.53;3.23;;;;;;;17.52;83.90;99792.69;5050377;28;20204;-75
2022/06/08 05:42:22;;;;;;;4.30;4.00;;;;;;;17.57;83.62;99804.66;5051251;28;20219;-76
2022/06/08 05:44:48;;;;;;;4.07;3.77;;;;;;;17.64;82.84;99823.63;5051397;28;20222;-75
2022/06/08 05:47:17;;;;;;;3.40;3.13;;;;;;;17.66;82.57;99845.53;5050053;28;20208;-75
2022/06/08 05:49:43;;;;;;;3.77;3.57;;;;;;;17.72;81.86;99846.94;5050141;28;20295;-75
2022/06/08 05:52:10;;;;;;;3.60;3.40;;;;;;;17.75;81.35;99866.09;5051175;28;20205;-75
2022/06/08 05:54:37;;;;;;;3.83;3.47;;;;;;;17.81;81.08;99878.09;5050527;28;20285;-75
2022/06/08 05:57:04;;;;;;;3.80;3.60;;;;;;;17.87;81.17;99877.78;5051162;28;20196;-75
2022/06/08 05:59:31;;;;;;;3.30;3.10;;;;;;;17.89;80.97;99877.69;5050434;28;20211;-75
2022/06/08 06:01:57;;;;;;;3.50;3.23;;;;;;;17.91;81.17;99876.66;5051480;28;20229;-75
2022/06/08 06:04:25;;;;;;;3.37;3.17;;;;;;;17.96;81.52;99877.25;5050717;28;20258;-75
2022/06/08 06:06:51;;;;;;;3.63;3.43;;;;;;;18.02;80.77;99882.16;5054640;28;20201;-76
2022/06/08 06:09:20;;;;;;;3.30;3.10;;;;;;;18.10;79.82;99907.28;5054611;28;20212;-75
2022/06/08 06:11:47;;;;;;;4.40;4.10;;;;;;;18.14;79.16;99932.56;5055067;28;20268;-75
2022/06/08 06:14:14;;;;;;;4.10;3.90;;;;;;;18.15;78.23;99958.88;5054877;28;20208;-75
2022/06/08 06:16:40;;;;;;;3.83;3.63;;;;;;;18.17;78.33;99974.66;5054602;28;20204;-75
2022/06/08 06:19:07;;;;;;;3.90;3.70;;;;;;;18.29;78.85;99951.94;5054442;28;20232;-75
2022/06/08 06:21:35;;;;;;;4.17;3.97;;;;;;;18.38;78.23;99960.19;5054948;28;20208;-76
2022/06/08 06:24:02;;;;;;;3.90;3.70;;;;;;;18.37;78.49;99962.91;5054795;28;20204;-75
2022/06/08 06:26:30;;;;;;;4.87;4.57;;;;;;;18.21;77.77;99978.81;5054457;28;20318;-75
2022/06/08 06:28:56;;;;;;;4.17;3.97;;;;;;;18.27;78.31;99957.31;5054207;28;20813;-75
2022/06/08 06:31:27;;;;;;;4.67;4.40;;;;;;;18.33;78.63;99951.66;5054656;28;20210;-75
2022/06/08 06:33:54;;;;;;;4.10;3.80;;;;;;;18.46;78.33;99955.28;5054412;28;20213;-76
2022/06/08 06:36:20;;;;;;;4.17;3.87;;;;;;;18.34;77.68;99984.25;5057949;28;20692;-75
2022/06/08 06:38:48;;;;;;;4.60;4.20;;;;;;;18.42;77.50;99995.22;5053934;28;20220;-76
2022/06/08 06:41:16;;;;;;;6.17;5.77;;;;;;;18.30;77.12;99999.41;5046693;28;20201;-75
2022/06/08 06:43:43;;;;;;;6.37;5.90;;;;;;;18.25;76.50;100025.25;5055426;28;20222;-76
2022/06/08 06:46:10;;;;;;;6.00;5.60;;;;;;;18.27;77.06;100031.28;5054433;28;20259;-75
2022/06/08 06:48:37;;;;;;;6.50;6.10;;;;;;;18.42;77.03;100011.06;5053823;28;20207;-75
2022/06/08 06:51:04;;;;;;;7.20;6.80;;;;;;;18.24;76.67;100019.13;5053980;28;20201;-72
2022/06/08 06:53:30;;;;;;;7.40;6.90;;;;;;;18.02;76.47;100029.22;5053949;28;20204;-72
2022/06/08 06:55:58;;;;;;;7.07;6.60;;;;;;;18.15;77.35;99993.22;5053930;28;20228;-72
2022/06/08 06:58:25;;;;;;;7.43;6.93;;;;;;;18.29;77.37;99987.13;5053209;28;20698;-73
2022/06/08 07:00:51;;;;;;;8.43;7.87;;;;;;;18.14;76.84;100010.03;5052210;28;20787;-72
2022/06/08 07:03:18;;;;;;;7.67;7.07;;;;;;;18.18;77.14;100000.97;5053804;28;20457;-72
2022/06/08 07:05:44;;;;;;;7.27;6.87;;;;;;;18.27;77.04;99999.59;5053868;28;20220;-73
2022/06/08 07:08:11;;;;;;;7.60;7.10;;;;;;;18.31;76.69;100006.41;5053860;28;20199;-72
2022/06/08 07:10:37;;;;;;;7.73;7.20;;;;;;;18.33;76.15;100024.81;5053107;28;20741;-73
2022/06/08 07:13:06;;;;;;;7.47;6.97;;;;;;;18.45;75.89;100032.03;5053710;28;20263;-73
2022/06/08 07:15:32;;;;;;;7.27;6.77;;;;;;;18.52;75.78;100038.66;5053047;28;20234;-73
2022/06/08 07:17:59;;;;;;;7.77;7.30;;;;;;;18.63;75.98;100032.72;5052539;28;20228;-73
2022/06/08 07:20:25;;;;;;;7.07;6.60;;;;;;;18.57;75.27;100047.19;5053025;28;20254;-73
2022/06/08 07:22:52;;;;;;;7.23;6.73;;;;;;;18.63;75.68;100038.88;5053152;28;20247;-73
2022/06/08 07:25:19;;;;;;;7.70;7.20;;;;;;;18.62;74.60;100036.34;5053409;28;20281;-73
2022/06/08 07:27:47;;;;;;;7.53;6.93;;;;;;;18.57;73.43;100056.88;5053346;28;20200;-72
2022/06/08 07:30:15;;;;;;;6.77;6.37;;;;;;;18.71;73.95;100072.81;5053160;28;20659;-73
2022/06/08 07:32:42;;;;;;;5.80;5.43;;;;;;;18.94;73.21;100081.19;5053156;28;20203;-72
2022/06/08 07:35:10;;;;;;;6.00;5.70;;;;;;;19.02;72.18;100113.34;5053070;28;20220;-73
2022/06/08 07:37:36;;;;;;;5.63;5.13;;;;;;;19.17;71.70;100133.59;5053059;28;20837;-72
2022/06/08 07:40:03;;;;;;;5.50;5.17;;;;;;;19.19;71.28;100136.16;5053012;28;20223;-73
2022/06/08 07:42:30;;;;;;;5.30;4.90;;;;;;;18.91;70.41;100179.22;5053104;28;20242;-72
2022/06/08 07:44:56;;;;;;;4.50;4.20;;;;;;;18.66;68.74;100210.53;5053376;28;20699;-73
2022/06/08 07:47:24;;;;;;;4.63;4.33;;;;;;;18.58;69.17;100214.56;5044690;28;20273;-73
2022/06/08 07:49:51;;;;;;;4.47;4.17;;;;;;;18.47;70.49;100194.00;5052450;28;20662;-73
2022/06/08 07:52:19;;;;;;;3.67;3.47;;;;;;;18.49;71.44;100141.91;5053329;28;20212;-73
2022/06/08 07:54:47;;;;;;;3.70;3.50;;;;;;;18.62;70.31;100137.63;5052443;28;20243;-73
2022/06/08 07:57:17;;;;;;;3.87;3.57;;;;;;;18.79;69.78;100160.50;5052929;28;20200;-72
2022/06/08 07:59:44;;;;;;;3.80;3.60;;;;;;;18.91;70.37;100161.59;5052462;28;20577;-72
2022/06/08 08:02:11;;;;;;;3.33;3.13;;;;;;;18.96;68.74;100163.97;5052719;28;20262;-72
2022/06/08 08:04:39;;;;;;;3.20;3.00;;;;;;;19.09;68.28;100190.53;5052247;28;20717;-73
2022/06/08 08:07:06;;;;;;;3.30;3.00;;;;;;;18.98;67.38;100230.84;5052693;28;20247;-73
2022/06/08 08:09:34;;;;;;;3.00;2.80;;;;;;;18.94;66.01;100258.44;5052299;28;20204;-72
2022/06/08 08:12:01;;;;;;;2.90;2.80;;;;;;;19.15;67.02;100253.72;5051066;28;20201;-72
2022/06/08 08:14:28;;;;;;;3.80;3.60;;;;;;;19.18;66.44;100248.22;5052629;28;20303;-73
2022/06/08 08:16:55;;;;;;;3.40;2.73;;;;;;;19.30;66.13;100246.66;5052594;28;20618;-73
2022/06/08 08:19:25;;;;;;;3.20;3.00;;;;;;;19.42;65.53;100275.06;5051945;28;20363;-72
2022/06/08 08:21:54;;;;;;;2.37;2.27;;;;;;;19.39;64.43;100310.50;5052199;28;20212;-72
2022/06/08 08:24:22;;;;;;;3.00;2.80;;;;;;;19.56;64.04;100277.78;5052492;28;20213;-73
2022/06/08 08:26:49;;;;;;;2.87;2.77;;;;;;;19.67;65.67;100287.72;5052086;28;20213;-72
2022/06/08 08:29:17;;;;;;;2.87;2.77;;;;;;;19.84;66.11;100250.50;5051495;28;20204;-73
2022/06/08 08:31:43;;;;;;;3.20;3.00;;;;;;;19.88;65.30;100266.19;5051888;28;20202;-73
2022/06/08 08:34:10;;;;;;;2.27;2.17;;;;;;;19.92;63.69;100320.69;5052093;28;20198;-73
2022/06/08 08:36:37;;;;;;;2.30;2.20;;;;;;;20.06;62.49;100341.94;5052340;28;20233;-73
2022/06/08 08:39:06;;;;;;;2.70;2.50;;;;;;;19.89;61.96;100387.13;5051320;28;20235;-73
2022/06/08 08:44:30;;;;;;;2.40;2.27;;;;;;;20.06;63.14;100383.47;5043908;28;20196;-73
2022/06/08 08:47:02;;;;;;;2.40;2.30;;;;;;;20.18;62.83;100348.31;5046484;28;20243;-72
2022/06/08 08:49:32;;;;;;;2.20;2.10;;;;;;;20.08;60.94;100379.81;5044507;28;20719;-73
2022/06/08 08:52:01;;;;;;;2.10;2.00;;;;;;;20.10;61.31;100393.81;5042415;28;20295;-73
2022/06/08 08:54:34;;;;;;;2.50;2.40;;;;;;;19.79;61.73;100385.00;5045196;28;20240;-73
2022/06/08 08:57:16;;;;;;;2.20;2.10;;;;;;;19.87;61.49;100365.19;5044343;28;20335;-73
2022/06/08 08:59:45;;;;;;;2.27;2.17;;;;;;;19.90;61.08;100363.22;5048453;28;20224;-72
2022/06/08 09:02:15;;;;;;;2.37;2.20;;;;;;;20.09;62.08;100343.56;5047860;28;20225;-73
2022/06/08 09:04:47;;;;;;;3.00;2.33;;;;;;;20.06;60.92;100360.50;5039914;28;20230;-73
2022/06/08 09:07:16;;;;;;;2.27;2.10;;;;;;;20.11;60.23;100365.50;5042179;28;20205;-73
2022/06/08 09:09:45;;;;;;;2.17;2.07;;;;;;;20.19;60.12;100344.69;5041839;28;20210;-73
2022/06/08 09:12:14;;;;;;;2.10;2.00;;;;;;;20.33;59.82;100371.22;5040136;28;20205;-73
2022/06/08 09:14:51;;;;;;;2.10;1.90;;;;;;;20.27;59.57;100419.31;5042151;28;20279;-72
2022/06/08 09:17:20;;;;;;;2.23;1.93;;;;;;;20.40;58.15;100427.38;5044092;28;20202;-73
2022/06/08 09:19:49;;;;;;;1.63;1.53;;;;;;;20.42;58.65;100426.34;5042674;28;20247;-72
2022/06/08 09:22:25;;;;;;;1.63;1.53;;;;;;;20.56;56.84;100417.56;5042465;28;20664;-72
2022/06/08 09:24:57;;;;;;;1.90;1.80;;;;;;;20.74;57.32;100460.69;5041398;28;20215;-72
2022/06/08 09:27:26;;;;;;;1.50;1.40;;;;;;;20.43;53.92;100512.91;5041567;28;20245;-73
2022/06/08 09:29:57;;;;;;;1.60;1.47;;;;;;;20.07;56.55;100546.84;5047456;28;20265;-72
2022/06/08 09:32:33;;;;;;;1.80;1.70;;;;;;;20.08;58.07;100490.22;5042919;28;20221;-72
2022/06/08 09:35:02;;;;;;;1.90;1.80;;;;;;;20.31;58.78;100414.69;5040205;28;20225;-72
2022/06/08 09:37:29;;;;;;;2.00;1.80;;;;;;;20.41;58.27;100399.91;5042831;28;20313;-73
2022/06/08 09:40:01;;;;;;;2.07;1.97;;;;;;;20.54;58.34;100426.56;5043439;28;20273;-72
2022/06/08 09:42:47;;;;;;;1.80;1.70;;;;;;;20.62;57.12;100432.28;5047766;28;20208;-72
2022/06/08 09:45:38;;;;;;;2.27;2.03;;;;;;;20.57;56.34;100464.34;5045275;28;20225;-72
2022/06/08 09:51:27;;;;;;;1.93;1.70;;;;;;;20.68;53.09;100531.84;5044192;28;20230;-72
2022/06/08 09:54:03;;;;;;;1.70;1.60;;;;;;;20.93;54.42;100541.81;5043652;28;20200;-73
2022/06/08 09:56:40;;;;;;;1.90;1.80;;;;;;;20.75;52.47;100549.97;5047857;28;20220;-72
2022/06/08 09:59:20;;;;;;;1.70;1.60;;;;;;;20.75;53.71;100563.22;5047992;28;20773;-72
2022/06/08 10:01:56;;;;;;;1.70;1.60;;;;;;;20.73;53.60;100564.25;5053064;28;20201;-72
2022/06/08 10:04:45;;;;;;;1.87;1.77;;;;;;;20.85;53.57;100544.94;5046642;28;20204;-72
2022/06/08 10:07:17;;;;;;;1.70;1.60;;;;;;;20.79;53.58;100543.53;5052796;28;20196;-72
2022/06/08 10:10:00;;;;;;;1.83;1.73;;;;;;;20.76;52.57;100522.47;5054384;28;20283;-73
2022/06/08 10:12:37;;;;;;;1.60;1.50;;;;;;;20.89;53.16;100516.41;5054740;28;20198;-73
2022/06/08 10:15:14;;;;;;;1.70;1.60;;;;;;;20.61;54.86;100537.53;5054991;28;20278;-72
2022/06/08 10:17:45;;;;;;;1.97;1.87;;;;;;;20.59;55.38;100504.06;5054429;28;20224;-72
2022/06/08 10:20:17;;;;;;;3.67;1.80;;;;;;;20.82;54.75;100481.47;5053819;28;20288;-72
2022/06/08 10:22:48;;;;;;;3.20;1.77;;;;;;;20.93;54.17;100491.41;5054759;28;20193;-72
2022/06/08 10:25:20;;;;;;;2.00;1.90;;;;;;;21.15;53.65;100488.28;5054679;28;20233;-72
2022/06/08 10:27:53;;;;;;;1.80;1.70;;;;;;;21.16;52.82;100471.41;5054412;28;20295;-72
2022/06/08 10:30:25;;;;;;;2.00;1.90;;;;;;;21.15;53.63;100515.69;5054301;28;20254;-73
2022/06/08 10:32:58;;;;;;;2.00;1.80;;;;;;;21.31;52.72;100501.47;5053088;28;20255;-72
2022/06/08 10:35:31;;;;;;;1.80;1.70;;;;;;;21.47;53.42;100514.66;5054206;28;20715;-73
2022/06/08 10:37:59;;;;;;;2.07;1.83;;;;;;;21.61;52.85;100523.44;5054272;28;20212;-72
2022/06/08 10:40:29;;;;;;;1.97;1.87;;;;;;;21.74;51.14;100536.81;5053907;28;20221;-72
2022/06/08 10:42:57;;;;;;;2.50;1.70;;;;;;;21.61;50.78;100597.81;5054167;28;20552;-72
2022/06/08 10:45:45;;;;;;;2.10;1.90;;;;;;;21.78;51.37;100579.97;5054285;28;20612;-72
2022/06/08 10:48:37;;;;;;;1.77;1.67;;;;;;;21.95;53.34;100537.22;5053842;28;20288;-72
2022/06/08 10:51:26;;;;;;;1.90;1.80;;;;;;;21.84;50.89;100555.66;5052017;28;20288;-72
2022/06/08 10:56:51;;;;;;;1.67;1.57;;;;;;;22.05;50.06;100572.03;5053760;28;20584;-72
2022/06/08 10:59:21;;;;;;;2.40;1.60;;;;;;;22.26;50.00;100580.44;5053379;28;20677;-72
2022/06/08 11:01:56;;;;;;;1.87;1.70;;;;;;;22.13;48.49;100620.22;5048405;28;20198;-73
2022/06/08 11:04:51;;;;;;;1.73;1.63;;;;;;;22.26;49.31;100649.59;5053914;28;20200;-72
2022/06/08 11:07:22;;;;;;;1.97;1.87;;;;;;;22.57;50.17;100597.03;5052888;28;20293;-72
2022/06/08 11:10:04;;;;;;;1.60;1.50;;;;;;;22.41;47.25;100595.38;5053534;28;20192;-72
2022/06/08 11:13:06;;;;;;;1.60;1.50;;;;;;;22.36;48.36;100618.78;5053855;28;20232;-72
2022/06/08 11:15:42;;;;;;;1.87;1.77;;;;;;;22.36;47.97;100617.94;5053566;28;20228;-72
2022/06/08 11:18:24;;;;;;;1.80;1.67;;;;;;;22.26;48.64;100635.41;5053356;28;20667;-72
2022/06/08 11:20:59;;;;;;;1.50;1.50;;;;;;;22.39;49.25;100607.09;5044557;28;20629;-72
2022/06/08 11:23:31;;;;;;;2.20;2.10;;;;;;;22.45;47.83;100582.72;5053513;28;20201;-72
2022/06/08 11:26:15;;;;;;;2.33;2.13;;;;;;;22.60;50.03;100597.69;5053613;28;20213;-72
2022/06/08 11:28:44;;;;;;;1.60;1.50;;;;;;;22.60;48.89;100576.41;5053393;28;20198;-73
2022/06/08 11:31:33;;;;;;;1.67;1.57;;;;;;;22.33;48.60;100632.28;5053324;28;20210;-74
2022/06/08 11:34:28;;;;;;;1.93;1.83;;;;;;;22.47;49.83;100587.97;5033262;28;20268;-76
2022/06/08 11:37:15;;;;;;;1.90;1.80;;;;;;;22.50;50.22;100583.28;5034309;28;20187;-76
2022/06/08 11:39:51;;;;;;;1.40;1.40;;;;;;;22.57;50.17;100557.97;5033688;28;20257;-73
2022/06/08 11:42:24;;;;;;;1.90;1.63;;;;;;;22.52;51.51;100545.94;5033528;28;20220;-73
2022/06/08 11:44:54;;;;;;;1.73;1.57;;;;;;;22.54;50.64;100515.63;5033611;28;20222;-73
2022/06/08 11:47:29;;;;;;;2.07;1.80;;;;;;;22.74;52.12;100500.94;5033792;28;20206;-73
2022/06/08 11:50:00;;;;;;;1.70;1.60;;;;;;;22.93;52.37;100449.09;5033153;28;20305;-73
2022/06/08 11:52:34;;;;;;;1.53;1.50;;;;;;;23.11;52.62;100473.59;5033573;28;20212;-73
2022/06/08 11:55:04;;;;;;;2.17;1.57;;;;;;;23.35;52.66;100461.19;5033375;28;20233;-73